sensor_id;sensor_type;location;lat;lon;timestamp;temperature;humidity
76120;DHT22;64852;48.092;-1.640;2024-03-06T00:00:25;7.90;99.90
76120;DHT22;64852;48.092;-1.640;2024-03-06T00:02:51;8.10;99.90
76120;DHT22;64852;48.092;-1.640;2024-03-06T00:05:16;7.50;99.90
76120;DHT22;64852;48.092;-1.640;2024-03-06T00:07:42;6.90;99.90
76120;DHT22;64852;48.092;-1.640;2024-03-06T00:10:07;7.70;99.90
76120;DHT22;64852;48.092;-1.640;2024-03-06T00:12:33;6.50;99.90
76120;DHT22;64852;48.092;-1.640;2024-03-06T00:14:59;6.40;99.90
76120;DHT22;64852;48.092;-1.640;2024-03-06T00:17:25;6.50;99.90
76120;DHT22;64852;48.092;-1.640;2024-03-06T00:19:50;7.50;99.90
76120;DHT22;64852;48.092;-1.640;2024-03-06T00:22:16;8.00;99.90
76120;DHT22;64852;48.092;-1.640;2024-03-06T00:24:42;6.40;99.90
76120;DHT22;64852;48.092;-1.640;2024-03-06T00:27:07;7.30;99.90
76120;DHT22;64852;48.092;-1.640;2024-03-06T00:29:33;6.40;99.90
76120;DHT22;64852;48.092;-1.640;2024-03-06T00:32:01;7.40;99.90
76120;DHT22;64852;48.092;-1.640;2024-03-06T00:34:27;7.20;99.90
76120;DHT22;64852;48.092;-1.640;2024-03-06T00:36:52;7.00;99.90
76120;DHT22;64852;48.092;-1.640;2024-03-06T00:39:19;7.20;99.90
76120;DHT22;64852;48.092;-1.640;2024-03-06T00:41:45;6.30;99.90
76120;DHT22;64852;48.092;-1.640;2024-03-06T00:44:10;7.40;99.90
76120;DHT22;64852;48.092;-1.640;2024-03-06T00:46:36;6.20;99.90
76120;DHT22;64852;48.092;-1.640;2024-03-06T00:49:01;6.30;99.90
76120;DHT22;64852;48.092;-1.640;2024-03-06T00:51:27;7.20;99.90
76120;DHT22;64852;48.092;-1.640;2024-03-06T00:53:52;7.70;99.90
76120;DHT22;64852;48.092;-1.640;2024-03-06T00:56:18;7.10;99.90
76120;DHT22;64852;48.092;-1.640;2024-03-06T00:58:43;7.00;99.90
76120;DHT22;64852;48.092;-1.640;2024-03-06T01:01:09;7.00;99.90
76120;DHT22;64852;48.092;-1.640;2024-03-06T01:03:34;6.30;99.90
76120;DHT22;64852;48.092;-1.640;2024-03-06T01:06:00;6.10;99.90
76120;DHT22;64852;48.092;-1.640;2024-03-06T01:08:25;6.10;99.90
76120;DHT22;64852;48.092;-1.640;2024-03-06T01:10:51;6.90;99.90
76120;DHT22;64852;48.092;-1.640;2024-03-06T01:13:17;6.70;99.90
76120;DHT22;64852;48.092;-1.640;2024-03-06T01:15:43;6.00;99.90
76120;DHT22;64852;48.092;-1.640;2024-03-06T01:18:08;7.40;99.90
76120;DHT22;64852;48.092;-1.640;2024-03-06T01:20:34;6.50;99.90
76120;DHT22;64852;48.092;-1.640;2024-03-06T01:22:59;7.40;99.90
76120;DHT22;64852;48.092;-1.640;2024-03-06T01:25:25;5.90;99.90
76120;DHT22;64852;48.092;-1.640;2024-03-06T01:27:50;5.90;99.90
76120;DHT22;64852;48.092;-1.640;2024-03-06T01:30:16;6.70;99.90
76120;DHT22;64852;48.092;-1.640;2024-03-06T01:32:42;6.60;99.90
76120;DHT22;64852;48.092;-1.640;2024-03-06T01:35:07;6.80;99.90
76120;DHT22;64852;48.092;-1.640;2024-03-06T01:37:33;5.90;99.90
76120;DHT22;64852;48.092;-1.640;2024-03-06T01:39:58;6.60;99.90
76120;DHT22;64852;48.092;-1.640;2024-03-06T01:42:24;7.30;99.90
76120;DHT22;64852;48.092;-1.640;2024-03-06T01:44:49;7.70;99.90
76120;DHT22;64852;48.092;-1.640;2024-03-06T01:47:15;7.40;99.90
76120;DHT22;64852;48.092;-1.640;2024-03-06T01:49:41;6.50;99.90
76120;DHT22;64852;48.092;-1.640;2024-03-06T01:52:07;6.30;99.90
76120;DHT22;64852;48.092;-1.640;2024-03-06T01:54:35;7.40;99.90
76120;DHT22;64852;48.092;-1.640;2024-03-06T01:57:00;7.00;99.90
76120;DHT22;64852;48.092;-1.640;2024-03-06T01:59:28;7.10;99.90
76120;DHT22;64852;48.092;-1.640;2024-03-06T02:01:53;7.10;99.90
76120;DHT22;64852;48.092;-1.640;2024-03-06T02:04:19;6.60;99.90
76120;DHT22;64852;48.092;-1.640;2024-03-06T02:06:45;6.90;99.90
76120;DHT22;64852;48.092;-1.640;2024-03-06T02:09:11;7.20;99.90
76120;DHT22;64852;48.092;-1.640;2024-03-06T02:11:39;6.00;99.90
76120;DHT22;64852;48.092;-1.640;2024-03-06T02:14:04;5.70;99.90
76120;DHT22;64852;48.092;-1.640;2024-03-06T02:16:31;7.00;99.90
76120;DHT22;64852;48.092;-1.640;2024-03-06T02:18:57;7.10;99.90
76120;DHT22;64852;48.092;-1.640;2024-03-06T02:21:24;6.10;99.90
76120;DHT22;64852;48.092;-1.640;2024-03-06T02:23:49;6.30;99.90
76120;DHT22;64852;48.092;-1.640;2024-03-06T02:26:19;6.30;99.90
76120;DHT22;64852;48.092;-1.640;2024-03-06T02:28:48;6.50;99.90
76120;DHT22;64852;48.092;-1.640;2024-03-06T02:31:15;5.50;99.90
76120;DHT22;64852;48.092;-1.640;2024-03-06T02:33:41;5.90;99.90
76120;DHT22;64852;48.092;-1.640;2024-03-06T02:36:06;6.80;99.90
76120;DHT22;64852;48.092;-1.640;2024-03-06T02:38:32;5.90;99.90
76120;DHT22;64852;48.092;-1.640;2024-03-06T02:40:58;6.80;99.90
76120;DHT22;64852;48.092;-1.640;2024-03-06T02:43:23;5.30;99.90
76120;DHT22;64852;48.092;-1.640;2024-03-06T02:45:49;6.90;99.90
76120;DHT22;64852;48.092;-1.640;2024-03-06T02:48:14;5.30;99.90
76120;DHT22;64852;48.092;-1.640;2024-03-06T02:50:40;5.40;99.90
76120;DHT22;64852;48.092;-1.640;2024-03-06T02:53:05;6.60;99.90
76120;DHT22;64852;48.092;-1.640;2024-03-06T02:55:31;6.80;99.90
76120;DHT22;64852;48.092;-1.640;2024-03-06T02:57:56;5.20;99.90
76120;DHT22;64852;48.092;-1.640;2024-03-06T03:00:22;6.80;99.90
76120;DHT22;64852;48.092;-1.640;2024-03-06T03:02:48;5.30;99.90
76120;DHT22;64852;48.092;-1.640;2024-03-06T03:05:13;6.20;99.90
76120;DHT22;64852;48.092;-1.640;2024-03-06T03:07:39;5.20;99.90
76120;DHT22;64852;48.092;-1.640;2024-03-06T03:10:04;6.20;99.90
76120;DHT22;64852;48.092;-1.640;2024-03-06T03:12:30;5.20;99.90
76120;DHT22;64852;48.092;-1.640;2024-03-06T03:14:56;5.10;99.90
76120;DHT22;64852;48.092;-1.640;2024-03-06T03:17:21;6.40;99.90
76120;DHT22;64852;48.092;-1.640;2024-03-06T03:19:47;5.10;99.90
76120;DHT22;64852;48.092;-1.640;2024-03-06T03:22:12;5.00;99.90
76120;DHT22;64852;48.092;-1.640;2024-03-06T03:24:38;6.70;99.90
76120;DHT22;64852;48.092;-1.640;2024-03-06T03:27:04;6.70;99.90
76120;DHT22;64852;48.092;-1.640;2024-03-06T03:29:29;6.40;99.90
76120;DHT22;64852;48.092;-1.640;2024-03-06T03:31:55;6.40;99.90
76120;DHT22;64852;48.092;-1.640;2024-03-06T03:34:20;6.40;99.90
76120;DHT22;64852;48.092;-1.640;2024-03-06T03:36:46;6.00;99.90
76120;DHT22;64852;48.092;-1.640;2024-03-06T03:39:12;6.30;99.90
76120;DHT22;64852;48.092;-1.640;2024-03-06T03:41:47;5.40;99.90
76120;DHT22;64852;48.092;-1.640;2024-03-06T03:44:13;4.70;99.90
76120;DHT22;64852;48.092;-1.640;2024-03-06T03:46:39;4.60;99.90
76120;DHT22;64852;48.092;-1.640;2024-03-06T03:49:04;6.10;99.90
76120;DHT22;64852;48.092;-1.640;2024-03-06T03:51:30;6.20;99.90
76120;DHT22;64852;48.092;-1.640;2024-03-06T03:53:55;4.50;99.90
76120;DHT22;64852;48.092;-1.640;2024-03-06T03:56:21;5.40;99.90
76120;DHT22;64852;48.092;-1.640;2024-03-06T03:58:47;4.50;99.90
76120;DHT22;64852;48.092;-1.640;2024-03-06T04:01:12;4.50;99.90
76120;DHT22;64852;48.092;-1.640;2024-03-06T04:03:38;4.50;99.90
76120;DHT22;64852;48.092;-1.640;2024-03-06T04:06:03;4.50;99.90
76120;DHT22;64852;48.092;-1.640;2024-03-06T04:08:29;4.50;99.90
76120;DHT22;64852;48.092;-1.640;2024-03-06T04:10:54;4.40;99.90
76120;DHT22;64852;48.092;-1.640;2024-03-06T04:13:20;5.90;99.90
76120;DHT22;64852;48.092;-1.640;2024-03-06T04:15:46;5.40;99.90
76120;DHT22;64852;48.092;-1.640;2024-03-06T04:18:12;6.20;99.90
76120;DHT22;64852;48.092;-1.640;2024-03-06T04:20:37;4.50;99.90
76120;DHT22;64852;48.092;-1.640;2024-03-06T04:23:03;5.50;99.90
76120;DHT22;64852;48.092;-1.640;2024-03-06T04:25:28;4.40;99.90
76120;DHT22;64852;48.092;-1.640;2024-03-06T04:27:54;5.40;99.90
76120;DHT22;64852;48.092;-1.640;2024-03-06T04:30:19;5.60;99.90
76120;DHT22;64852;48.092;-1.640;2024-03-06T04:32:46;4.40;99.90
76120;DHT22;64852;48.092;-1.640;2024-03-06T04:35:11;6.00;99.90
76120;DHT22;64852;48.092;-1.640;2024-03-06T04:37:37;4.30;99.90
76120;DHT22;64852;48.092;-1.640;2024-03-06T04:40:03;5.80;99.90
76120;DHT22;64852;48.092;-1.640;2024-03-06T04:42:29;4.40;99.90
76120;DHT22;64852;48.092;-1.640;2024-03-06T04:44:54;4.20;99.90
76120;DHT22;64852;48.092;-1.640;2024-03-06T04:47:20;5.60;99.90
76120;DHT22;64852;48.092;-1.640;2024-03-06T04:49:46;5.40;99.90
76120;DHT22;64852;48.092;-1.640;2024-03-06T04:52:13;5.40;99.90
76120;DHT22;64852;48.092;-1.640;2024-03-06T04:54:39;4.30;99.90
76120;DHT22;64852;48.092;-1.640;2024-03-06T04:57:04;4.30;99.90
76120;DHT22;64852;48.092;-1.640;2024-03-06T04:59:30;5.40;99.90
76120;DHT22;64852;48.092;-1.640;2024-03-06T05:01:55;4.30;99.90
76120;DHT22;64852;48.092;-1.640;2024-03-06T05:04:21;4.30;99.90
76120;DHT22;64852;48.092;-1.640;2024-03-06T05:06:46;4.10;99.90
76120;DHT22;64852;48.092;-1.640;2024-03-06T05:09:12;4.20;99.90
76120;DHT22;64852;48.092;-1.640;2024-03-06T05:11:40;4.20;99.90
76120;DHT22;64852;48.092;-1.640;2024-03-06T05:14:05;4.20;99.90
76120;DHT22;64852;48.092;-1.640;2024-03-06T05:16:31;4.10;99.90
76120;DHT22;64852;48.092;-1.640;2024-03-06T05:18:56;5.20;99.90
76120;DHT22;64852;48.092;-1.640;2024-03-06T05:21:22;4.10;99.90
76120;DHT22;64852;48.092;-1.640;2024-03-06T05:23:48;4.20;99.90
76120;DHT22;64852;48.092;-1.640;2024-03-06T05:26:14;5.20;99.90
76120;DHT22;64852;48.092;-1.640;2024-03-06T05:28:39;4.70;99.90
76120;DHT22;64852;48.092;-1.640;2024-03-06T05:31:15;4.10;99.90
76120;DHT22;64852;48.092;-1.640;2024-03-06T05:33:41;5.80;99.90
76120;DHT22;64852;48.092;-1.640;2024-03-06T05:36:07;5.20;99.90
76120;DHT22;64852;48.092;-1.640;2024-03-06T05:38:32;4.80;99.90
76120;DHT22;64852;48.092;-1.640;2024-03-06T05:40:58;3.90;99.90
76120;DHT22;64852;48.092;-1.640;2024-03-06T05:43:23;5.10;99.90
76120;DHT22;64852;48.092;-1.640;2024-03-06T05:45:49;2.60;99.90
76120;DHT22;64852;48.092;-1.640;2024-03-06T05:48:14;4.00;99.90
76120;DHT22;64852;48.092;-1.640;2024-03-06T05:50:40;4.00;99.90
76120;DHT22;64852;48.092;-1.640;2024-03-06T05:53:06;3.90;99.90
76120;DHT22;64852;48.092;-1.640;2024-03-06T05:55:31;3.90;99.90
76120;DHT22;64852;48.092;-1.640;2024-03-06T05:57:57;3.80;99.90
76120;DHT22;64852;48.092;-1.640;2024-03-06T06:00:24;3.90;99.90
76120;DHT22;64852;48.092;-1.640;2024-03-06T06:02:50;3.80;99.90
76120;DHT22;64852;48.092;-1.640;2024-03-06T06:05:15;3.90;99.90
76120;DHT22;64852;48.092;-1.640;2024-03-06T06:07:45;3.90;99.90
76120;DHT22;64852;48.092;-1.640;2024-03-06T06:10:10;3.60;99.90
76120;DHT22;64852;48.092;-1.640;2024-03-06T06:12:36;3.80;99.90
76120;DHT22;64852;48.092;-1.640;2024-03-06T06:15:01;4.20;99.90
76120;DHT22;64852;48.092;-1.640;2024-03-06T06:17:27;3.90;99.90
76120;DHT22;64852;48.092;-1.640;2024-03-06T06:19:53;3.80;99.90
76120;DHT22;64852;48.092;-1.640;2024-03-06T06:22:18;3.80;99.90
76120;DHT22;64852;48.092;-1.640;2024-03-06T06:24:44;5.20;99.90
76120;DHT22;64852;48.092;-1.640;2024-03-06T06:27:11;3.80;99.90
76120;DHT22;64852;48.092;-1.640;2024-03-06T06:29:36;2.40;99.90
76120;DHT22;64852;48.092;-1.640;2024-03-06T06:32:02;4.90;99.90
76120;DHT22;64852;48.092;-1.640;2024-03-06T06:34:27;3.70;99.90
76120;DHT22;64852;48.092;-1.640;2024-03-06T06:36:53;3.70;99.90
76120;DHT22;64852;48.092;-1.640;2024-03-06T06:39:19;3.70;99.90
76120;DHT22;64852;48.092;-1.640;2024-03-06T06:41:44;4.70;99.90
76120;DHT22;64852;48.092;-1.640;2024-03-06T06:44:10;5.20;99.90
76120;DHT22;64852;48.092;-1.640;2024-03-06T06:46:36;3.60;99.90
76120;DHT22;64852;48.092;-1.640;2024-03-06T06:49:02;3.70;99.90
76120;DHT22;64852;48.092;-1.640;2024-03-06T06:51:28;2.60;99.90
76120;DHT22;64852;48.092;-1.640;2024-03-06T06:53:54;3.70;99.90
76120;DHT22;64852;48.092;-1.640;2024-03-06T06:56:20;3.70;99.90
76120;DHT22;64852;48.092;-1.640;2024-03-06T06:58:49;5.20;99.90
76120;DHT22;64852;48.092;-1.640;2024-03-06T07:01:14;3.70;99.90
76120;DHT22;64852;48.092;-1.640;2024-03-06T07:03:42;5.40;99.90
76120;DHT22;64852;48.092;-1.640;2024-03-06T07:06:07;5.20;99.90
76120;DHT22;64852;48.092;-1.640;2024-03-06T07:08:33;3.70;99.90
76120;DHT22;64852;48.092;-1.640;2024-03-06T07:10:58;3.70;99.90
76120;DHT22;64852;48.092;-1.640;2024-03-06T07:13:24;4.80;99.90
76120;DHT22;64852;48.092;-1.640;2024-03-06T07:15:49;5.10;99.90
76120;DHT22;64852;48.092;-1.640;2024-03-06T07:18:15;5.40;99.90
76120;DHT22;64852;48.092;-1.640;2024-03-06T07:20:40;5.40;99.90
76120;DHT22;64852;48.092;-1.640;2024-03-06T07:23:06;3.80;99.90
76120;DHT22;64852;48.092;-1.640;2024-03-06T07:25:32;3.80;99.90
76120;DHT22;64852;48.092;-1.640;2024-03-06T07:27:57;3.90;99.90
76120;DHT22;64852;48.092;-1.640;2024-03-06T07:30:23;3.90;99.90
76120;DHT22;64852;48.092;-1.640;2024-03-06T07:32:48;5.40;99.90
76120;DHT22;64852;48.092;-1.640;2024-03-06T07:35:14;4.00;99.90
76120;DHT22;64852;48.092;-1.640;2024-03-06T07:37:39;4.10;99.90
76120;DHT22;64852;48.092;-1.640;2024-03-06T07:40:06;5.00;99.90
76120;DHT22;64852;48.092;-1.640;2024-03-06T07:42:32;4.10;99.90
76120;DHT22;64852;48.092;-1.640;2024-03-06T07:44:58;4.10;99.90
76120;DHT22;64852;48.092;-1.640;2024-03-06T07:47:24;5.90;99.90
76120;DHT22;64852;48.092;-1.640;2024-03-06T07:49:49;4.20;99.90
76120;DHT22;64852;48.092;-1.640;2024-03-06T07:52:15;4.90;99.90
76120;DHT22;64852;48.092;-1.640;2024-03-06T07:54:41;5.80;99.90
76120;DHT22;64852;48.092;-1.640;2024-03-06T07:57:06;4.80;99.90
76120;DHT22;64852;48.092;-1.640;2024-03-06T07:59:32;4.40;99.90
76120;DHT22;64852;48.092;-1.640;2024-03-06T08:01:57;4.50;99.90
76120;DHT22;64852;48.092;-1.640;2024-03-06T08:04:23;4.70;99.90
76120;DHT22;64852;48.092;-1.640;2024-03-06T08:06:48;5.20;99.90
76120;DHT22;64852;48.092;-1.640;2024-03-06T08:09:14;4.80;99.90
76120;DHT22;64852;48.092;-1.640;2024-03-06T08:11:42;6.10;99.90
76120;DHT22;64852;48.092;-1.640;2024-03-06T08:14:07;5.50;99.90
76120;DHT22;64852;48.092;-1.640;2024-03-06T08:16:34;6.40;99.90
76120;DHT22;64852;48.092;-1.640;2024-03-06T08:19:00;5.10;99.90
76120;DHT22;64852;48.092;-1.640;2024-03-06T08:21:25;6.10;99.90
76120;DHT22;64852;48.092;-1.640;2024-03-06T08:23:51;5.40;99.90
76120;DHT22;64852;48.092;-1.640;2024-03-06T08:26:17;6.80;99.90
76120;DHT22;64852;48.092;-1.640;2024-03-06T08:28:43;5.50;99.90
76120;DHT22;64852;48.092;-1.640;2024-03-06T08:31:08;5.60;99.90
76120;DHT22;64852;48.092;-1.640;2024-03-06T08:33:34;6.70;99.90
76120;DHT22;64852;48.092;-1.640;2024-03-06T08:36:00;6.00;99.90
76120;DHT22;64852;48.092;-1.640;2024-03-06T08:38:25;7.00;99.90
76120;DHT22;64852;48.092;-1.640;2024-03-06T08:40:51;6.90;99.90
76120;DHT22;64852;48.092;-1.640;2024-03-06T08:43:16;6.20;99.90
76120;DHT22;64852;48.092;-1.640;2024-03-06T08:45:42;7.00;99.90
76120;DHT22;64852;48.092;-1.640;2024-03-06T08:48:08;6.30;99.90
76120;DHT22;64852;48.092;-1.640;2024-03-06T08:50:34;6.40;99.90
76120;DHT22;64852;48.092;-1.640;2024-03-06T08:53:00;6.50;99.90
76120;DHT22;64852;48.092;-1.640;2024-03-06T08:55:27;7.20;99.90
76120;DHT22;64852;48.092;-1.640;2024-03-06T08:57:53;7.90;99.90
76120;DHT22;64852;48.092;-1.640;2024-03-06T09:00:19;7.50;99.90
76120;DHT22;64852;48.092;-1.640;2024-03-06T09:02:45;7.00;99.90
76120;DHT22;64852;48.092;-1.640;2024-03-06T09:05:10;7.90;99.90
76120;DHT22;64852;48.092;-1.640;2024-03-06T09:07:38;7.30;99.90
76120;DHT22;64852;48.092;-1.640;2024-03-06T09:10:09;7.50;99.90
76120;DHT22;64852;48.092;-1.640;2024-03-06T09:12:35;7.50;99.90
76120;DHT22;64852;48.092;-1.640;2024-03-06T09:15:01;8.30;99.90
76120;DHT22;64852;48.092;-1.640;2024-03-06T09:17:26;7.80;99.90
76120;DHT22;64852;48.092;-1.640;2024-03-06T09:19:52;8.60;99.90
76120;DHT22;64852;48.092;-1.640;2024-03-06T09:22:17;8.10;99.90
76120;DHT22;64852;48.092;-1.640;2024-03-06T09:24:43;8.70;99.90
76120;DHT22;64852;48.092;-1.640;2024-03-06T09:27:08;9.30;99.90
76120;DHT22;64852;48.092;-1.640;2024-03-06T09:29:34;8.40;99.90
76120;DHT22;64852;48.092;-1.640;2024-03-06T09:31:59;8.60;99.90
76120;DHT22;64852;48.092;-1.640;2024-03-06T09:34:25;8.70;99.90
76120;DHT22;64852;48.092;-1.640;2024-03-06T09:36:51;8.80;99.90
76120;DHT22;64852;48.092;-1.640;2024-03-06T09:39:17;8.90;99.90
76120;DHT22;64852;48.092;-1.640;2024-03-06T09:41:52;9.60;99.90
76120;DHT22;64852;48.092;-1.640;2024-03-06T09:44:18;9.20;99.90
76120;DHT22;64852;48.092;-1.640;2024-03-06T09:46:46;9.40;99.90
76120;DHT22;64852;48.092;-1.640;2024-03-06T09:49:12;9.50;99.90
76120;DHT22;64852;48.092;-1.640;2024-03-06T09:51:41;9.60;99.90
76120;DHT22;64852;48.092;-1.640;2024-03-06T09:54:07;10.60;99.90
76120;DHT22;64852;48.092;-1.640;2024-03-06T09:56:34;10.00;99.90
76120;DHT22;64852;48.092;-1.640;2024-03-06T09:59:00;10.50;99.90
76120;DHT22;64852;48.092;-1.640;2024-03-06T10:01:25;10.20;99.90
76120;DHT22;64852;48.092;-1.640;2024-03-06T10:03:53;10.50;99.90
76120;DHT22;64852;48.092;-1.640;2024-03-06T10:06:18;11.00;99.90
76120;DHT22;64852;48.092;-1.640;2024-03-06T10:08:44;10.70;99.90
76120;DHT22;64852;48.092;-1.640;2024-03-06T10:11:11;11.80;99.90
76120;DHT22;64852;48.092;-1.640;2024-03-06T10:13:37;10.90;99.90
76120;DHT22;64852;48.092;-1.640;2024-03-06T10:16:03;11.10;99.90
76120;DHT22;64852;48.092;-1.640;2024-03-06T10:18:29;11.20;99.90
76120;DHT22;64852;48.092;-1.640;2024-03-06T10:20:55;11.30;99.90
76120;DHT22;64852;48.092;-1.640;2024-03-06T10:23:21;11.30;99.90
76120;DHT22;64852;48.092;-1.640;2024-03-06T10:25:47;11.20;99.90
76120;DHT22;64852;48.092;-1.640;2024-03-06T10:28:19;11.10;99.90
76120;DHT22;64852;48.092;-1.640;2024-03-06T10:30:45;11.20;99.90
76120;DHT22;64852;48.092;-1.640;2024-03-06T10:33:14;11.30;99.90
76120;DHT22;64852;48.092;-1.640;2024-03-06T10:35:43;11.50;99.90
76120;DHT22;64852;48.092;-1.640;2024-03-06T10:38:10;11.60;99.90
76120;DHT22;64852;48.092;-1.640;2024-03-06T10:40:37;11.70;99.90
76120;DHT22;64852;48.092;-1.640;2024-03-06T10:43:03;11.70;99.90
76120;DHT22;64852;48.092;-1.640;2024-03-06T10:48:02;12.00;99.90
76120;DHT22;64852;48.092;-1.640;2024-03-06T10:50:28;12.10;99.90
76120;DHT22;64852;48.092;-1.640;2024-03-06T10:52:54;12.30;99.90
76120;DHT22;64852;48.092;-1.640;2024-03-06T10:55:21;12.40;99.90
76120;DHT22;64852;48.092;-1.640;2024-03-06T10:57:48;12.60;99.90
76120;DHT22;64852;48.092;-1.640;2024-03-06T11:00:14;12.60;99.90
76120;DHT22;64852;48.092;-1.640;2024-03-06T11:02:47;12.80;99.90
76120;DHT22;64852;48.092;-1.640;2024-03-06T11:05:14;12.90;99.90
76120;DHT22;64852;48.092;-1.640;2024-03-06T11:07:40;12.90;99.90
76120;DHT22;64852;48.092;-1.640;2024-03-06T11:10:05;13.00;99.90
76120;DHT22;64852;48.092;-1.640;2024-03-06T11:12:36;13.00;99.90
76120;DHT22;64852;48.092;-1.640;2024-03-06T11:15:09;13.10;99.90
76120;DHT22;64852;48.092;-1.640;2024-03-06T11:17:36;13.20;99.90
76120;DHT22;64852;48.092;-1.640;2024-03-06T11:23:21;13.40;99.90
76120;DHT22;64852;48.092;-1.640;2024-03-06T11:28:09;13.50;99.90
76120;DHT22;64852;48.092;-1.640;2024-03-06T11:30:44;13.70;99.90
76120;DHT22;64852;48.092;-1.640;2024-03-06T11:33:11;13.80;99.90
76120;DHT22;64852;48.092;-1.640;2024-03-06T11:35:37;13.80;99.90
76120;DHT22;64852;48.092;-1.640;2024-03-06T11:38:05;13.80;99.90
76120;DHT22;64852;48.092;-1.640;2024-03-06T11:40:31;13.90;99.90
76120;DHT22;64852;48.092;-1.640;2024-03-06T11:43:21;13.80;99.90
76120;DHT22;64852;48.092;-1.640;2024-03-06T11:45:44;13.90;99.90
76120;DHT22;64852;48.092;-1.640;2024-03-06T11:48:10;14.00;99.90
76120;DHT22;64852;48.092;-1.640;2024-03-06T11:50:42;14.20;99.90
76120;DHT22;64852;48.092;-1.640;2024-03-06T11:53:08;14.30;99.90
76120;DHT22;64852;48.092;-1.640;2024-03-06T11:55:34;14.20;99.90
76120;DHT22;64852;48.092;-1.640;2024-03-06T11:57:59;14.20;99.90
76120;DHT22;64852;48.092;-1.640;2024-03-06T12:00:25;14.30;99.90
76120;DHT22;64852;48.092;-1.640;2024-03-06T12:02:50;14.40;99.90
76120;DHT22;64852;48.092;-1.640;2024-03-06T12:05:17;14.60;99.90
76120;DHT22;64852;48.092;-1.640;2024-03-06T12:07:51;14.90;99.90
76120;DHT22;64852;48.092;-1.640;2024-03-06T12:10:17;14.90;99.90
76120;DHT22;64852;48.092;-1.640;2024-03-06T12:12:43;14.80;99.90
76120;DHT22;64852;48.092;-1.640;2024-03-06T12:15:10;14.70;99.90
76120;DHT22;64852;48.092;-1.640;2024-03-06T12:17:47;14.70;99.90
76120;DHT22;64852;48.092;-1.640;2024-03-06T12:20:14;14.70;99.90
76120;DHT22;64852;48.092;-1.640;2024-03-06T12:22:59;14.80;99.90
76120;DHT22;64852;48.092;-1.640;2024-03-06T12:25:25;14.90;99.90
76120;DHT22;64852;48.092;-1.640;2024-03-06T12:27:51;15.00;99.90
76120;DHT22;64852;48.092;-1.640;2024-03-06T12:30:18;15.00;99.90
76120;DHT22;64852;48.092;-1.640;2024-03-06T12:33:04;15.20;99.90
76120;DHT22;64852;48.092;-1.640;2024-03-06T12:35:29;15.30;99.90
76120;DHT22;64852;48.092;-1.640;2024-03-06T12:37:55;15.40;99.90
76120;DHT22;64852;48.092;-1.640;2024-03-06T12:40:21;15.40;99.90
76120;DHT22;64852;48.092;-1.640;2024-03-06T12:42:47;15.30;99.90
76120;DHT22;64852;48.092;-1.640;2024-03-06T12:45:14;15.60;99.90
76120;DHT22;64852;48.092;-1.640;2024-03-06T12:47:43;16.00;99.90
76120;DHT22;64852;48.092;-1.640;2024-03-06T12:50:08;16.20;99.90
76120;DHT22;64852;48.092;-1.640;2024-03-06T12:52:36;16.00;99.90
76120;DHT22;64852;48.092;-1.640;2024-03-06T12:55:01;15.90;99.90
76120;DHT22;64852;48.092;-1.640;2024-03-06T12:57:27;15.90;99.90
76120;DHT22;64852;48.092;-1.640;2024-03-06T12:59:53;15.90;99.90
76120;DHT22;64852;48.092;-1.640;2024-03-06T13:02:18;15.90;99.90
76120;DHT22;64852;48.092;-1.640;2024-03-06T13:04:44;15.90;99.90
76120;DHT22;64852;48.092;-1.640;2024-03-06T13:07:09;16.00;99.90
76120;DHT22;64852;48.092;-1.640;2024-03-06T13:09:36;16.00;99.90
76120;DHT22;64852;48.092;-1.640;2024-03-06T13:12:01;15.90;99.90
76120;DHT22;64852;48.092;-1.640;2024-03-06T13:14:27;16.10;99.90
76120;DHT22;64852;48.092;-1.640;2024-03-06T13:16:52;16.30;99.90
76120;DHT22;64852;48.092;-1.640;2024-03-06T13:19:17;16.40;99.90
76120;DHT22;64852;48.092;-1.640;2024-03-06T13:21:43;16.20;99.90
76120;DHT22;64852;48.092;-1.640;2024-03-06T13:24:08;16.50;99.90
76120;DHT22;64852;48.092;-1.640;2024-03-06T13:26:34;17.30;99.90
76120;DHT22;64852;48.092;-1.640;2024-03-06T13:29:03;17.80;99.90
76120;DHT22;64852;48.092;-1.640;2024-03-06T13:31:28;17.20;99.90
76120;DHT22;64852;48.092;-1.640;2024-03-06T13:33:54;17.00;99.90
76120;DHT22;64852;48.092;-1.640;2024-03-06T13:36:19;16.70;99.90
76120;DHT22;64852;48.092;-1.640;2024-03-06T13:38:45;16.40;99.90
76120;DHT22;64852;48.092;-1.640;2024-03-06T13:41:11;16.40;99.90
76120;DHT22;64852;48.092;-1.640;2024-03-06T13:43:36;16.40;99.90
76120;DHT22;64852;48.092;-1.640;2024-03-06T13:46:02;16.50;99.90
76120;DHT22;64852;48.092;-1.640;2024-03-06T13:48:28;16.50;99.90
76120;DHT22;64852;48.092;-1.640;2024-03-06T13:50:53;16.30;99.90
76120;DHT22;64852;48.092;-1.640;2024-03-06T13:53:19;16.50;99.90
76120;DHT22;64852;48.092;-1.640;2024-03-06T13:55:44;16.50;99.90
76120;DHT22;64852;48.092;-1.640;2024-03-06T13:58:10;16.60;99.90
76120;DHT22;64852;48.092;-1.640;2024-03-06T14:00:36;16.80;99.90
76120;DHT22;64852;48.092;-1.640;2024-03-06T14:03:01;16.80;99.90
76120;DHT22;64852;48.092;-1.640;2024-03-06T14:05:27;16.80;99.90
76120;DHT22;64852;48.092;-1.640;2024-03-06T14:07:52;16.80;99.90
76120;DHT22;64852;48.092;-1.640;2024-03-06T14:10:18;16.70;99.90
76120;DHT22;64852;48.092;-1.640;2024-03-06T14:12:45;16.50;99.90
76120;DHT22;64852;48.092;-1.640;2024-03-06T14:15:11;16.20;99.90
76120;DHT22;64852;48.092;-1.640;2024-03-06T14:17:41;16.00;99.90
76120;DHT22;64852;48.092;-1.640;2024-03-06T14:20:07;16.10;99.90
76120;DHT22;64852;48.092;-1.640;2024-03-06T14:22:33;16.00;99.90
76120;DHT22;64852;48.092;-1.640;2024-03-06T14:24:58;16.10;99.90
76120;DHT22;64852;48.092;-1.640;2024-03-06T14:27:24;16.20;99.90
76120;DHT22;64852;48.092;-1.640;2024-03-06T14:29:49;16.20;99.90
76120;DHT22;64852;48.092;-1.640;2024-03-06T14:32:16;16.40;99.90
76120;DHT22;64852;48.092;-1.640;2024-03-06T14:34:43;16.80;99.90
76120;DHT22;64852;48.092;-1.640;2024-03-06T14:37:09;17.10;99.90
76120;DHT22;64852;48.092;-1.640;2024-03-06T14:39:35;17.30;99.90
76120;DHT22;64852;48.092;-1.640;2024-03-06T14:42:00;17.70;99.90
76120;DHT22;64852;48.092;-1.640;2024-03-06T14:44:26;19.40;99.90
76120;DHT22;64852;48.092;-1.640;2024-03-06T14:46:51;17.80;99.90
76120;DHT22;64852;48.092;-1.640;2024-03-06T14:49:17;17.80;99.90
76120;DHT22;64852;48.092;-1.640;2024-03-06T14:51:43;17.90;99.90
76120;DHT22;64852;48.092;-1.640;2024-03-06T14:54:08;18.00;99.90
76120;DHT22;64852;48.092;-1.640;2024-03-06T14:56:34;18.10;99.90
76120;DHT22;64852;48.092;-1.640;2024-03-06T14:59:00;18.10;99.90
76120;DHT22;64852;48.092;-1.640;2024-03-06T15:01:26;18.20;99.90
76120;DHT22;64852;48.092;-1.640;2024-03-06T15:03:52;18.20;99.90
76120;DHT22;64852;48.092;-1.640;2024-03-06T15:06:18;17.80;90.80
76120;DHT22;64852;48.092;-1.640;2024-03-06T15:08:44;17.50;99.90
76120;DHT22;64852;48.092;-1.640;2024-03-06T15:11:10;17.20;99.90
76120;DHT22;64852;48.092;-1.640;2024-03-06T15:13:36;17.10;99.90
76120;DHT22;64852;48.092;-1.640;2024-03-06T15:16:01;16.90;99.90
76120;DHT22;64852;48.092;-1.640;2024-03-06T15:18:29;16.90;98.40
76120;DHT22;64852;48.092;-1.640;2024-03-06T15:20:55;16.70;94.40
76120;DHT22;64852;48.092;-1.640;2024-03-06T15:23:20;16.50;91.60
76120;DHT22;64852;48.092;-1.640;2024-03-06T15:25:46;16.20;99.90